Time;durP1;ratioP1;P1;durP2;ratioP2;P2;SDS_P1;SDS_P2;PMS_P1;PMS_P2;Temp;Humidity;BMP_temperature;BMP_pressure;BME280_temperature;BME280_humidity;BME280_pressure;Samples;Min_cycle;Max_cycle;Signal;HPM_P1;HPM_P2
2022/08/30 00:03:16;;;;;;;7.90;4.90;;;;;;;16.92;68.68;102284.47;5197925;28;20443;-42
2022/08/30 00:05:49;;;;;;;5.18;3.30;;;;;;;16.96;68.67;102285.84;5198848;28;20480;-38
2022/08/30 00:08:22;;;;;;;6.93;4.35;;;;;;;16.89;68.72;102284.78;5199924;28;20597;-40
2022/08/30 00:10:57;;;;;;;7.50;3.90;;;;;;;16.93;68.83;102285.31;5200403;28;20041;-38
2022/08/30 00:13:29;;;;;;;9.73;4.50;;;;;;;16.81;69.19;102277.53;5200069;28;20071;-40
2022/08/30 00:16:02;;;;;;;9.05;3.88;;;;;;;16.80;68.81;102272.38;5200084;28;20396;-36
2022/08/30 00:18:36;;;;;;;8.98;4.72;;;;;;;16.87;69.30;102289.44;5201130;28;20072;-38
2022/08/30 00:21:09;;;;;;;8.10;4.30;;;;;;;16.83;69.54;102290.75;5197101;28;20476;-39
2022/08/30 00:23:42;;;;;;;9.93;5.38;;;;;;;16.82;69.62;102283.75;5199933;28;20368;-42
2022/08/30 00:26:16;;;;;;;18.17;5.13;;;;;;;16.75;69.57;102282.63;5197429;28;20428;-39
2022/08/30 00:28:48;;;;;;;10.95;6.07;;;;;;;16.72;69.85;102269.63;5199565;28;20051;-43
2022/08/30 00:31:21;;;;;;;7.22;4.53;;;;;;;16.72;69.90;102283.81;5202807;28;20048;-42
2022/08/30 00:33:54;;;;;;;18.27;5.43;;;;;;;16.68;69.98;102281.59;5203066;28;20128;-41
2022/08/30 00:36:26;;;;;;;9.70;6.40;;;;;;;16.65;69.94;102279.25;5204506;28;20504;-40
2022/08/30 00:38:59;;;;;;;16.98;5.63;;;;;;;16.60;69.79;102274.38;5206108;28;20507;-41
2022/08/30 00:41:33;;;;;;;9.07;5.10;;;;;;;16.58;69.99;102273.69;5209312;28;20133;-39
2022/08/30 00:44:06;;;;;;;10.93;5.90;;;;;;;16.65;69.93;102287.25;5196887;28;20366;-41
2022/08/30 00:46:39;;;;;;;11.45;6.25;;;;;;;16.62;70.19;102283.03;5198356;28;20438;-38
2022/08/30 00:49:13;;;;;;;9.65;5.22;;;;;;;16.56;69.99;102283.66;5203363;28;20643;-39
2022/08/30 00:51:45;;;;;;;16.30;6.45;;;;;;;16.57;69.96;102285.34;5206213;28;20203;-40
2022/08/30 00:54:18;;;;;;;8.82;5.35;;;;;;;16.55;69.96;102282.81;5207289;28;20057;-39
2022/08/30 00:56:53;;;;;;;16.27;5.50;;;;;;;16.59;69.65;102288.69;5203260;28;20068;-42
2022/08/30 00:59:27;;;;;;;13.60;6.70;;;;;;;16.58;69.76;102287.03;5200315;28;20317;-40
2022/08/30 01:02:00;;;;;;;13.05;5.85;;;;;;;16.58;69.50;102287.03;5193228;28;20044;-45
2022/08/30 01:04:34;;;;;;;9.25;5.53;;;;;;;16.55;69.06;102277.50;5205962;28;20129;-44
2022/08/30 01:07:07;;;;;;;13.55;6.00;;;;;;;16.56;68.94;102284.50;5198882;28;20427;-36
2022/08/30 01:09:40;;;;;;;16.05;6.22;;;;;;;16.59;68.71;102294.03;5198883;28;20463;-43
2022/08/30 01:12:14;;;;;;;20.77;7.85;;;;;;;16.54;68.80;102289.16;5192778;28;20086;-47
2022/08/30 01:14:47;;;;;;;13.25;6.25;;;;;;;16.56;68.47;102295.16;5190652;28;20049;-43
2022/08/30 01:17:20;;;;;;;14.05;6.65;;;;;;;16.56;68.36;102297.81;5187043;28;20447;-43
2022/08/30 01:19:58;;;;;;;6.93;5.82;;;;;;;16.47;68.16;102285.41;5200884;28;20072;-41
2022/08/30 01:22:36;;;;;;;8.45;5.72;;;;;;;16.53;67.56;102291.97;5196026;28;20055;-45
2022/08/30 01:25:12;;;;;;;9.68;5.85;;;;;;;16.53;67.88;102291.97;5200014;28;20130;-42
2022/08/30 01:27:50;;;;;;;16.00;6.60;;;;;;;16.52;67.64;102291.13;5192774;28;20056;-43
2022/08/30 01:30:23;;;;;;;11.35;6.25;;;;;;;16.41;67.59;102275.34;5200075;28;20377;-41
2022/08/30 01:32:59;;;;;;;;;;;;;;;16.48;67.41;102295.09;5198837;28;20626;-40
2022/08/30 01:35:39;;;;;;;16.17;7.13;;;;;;;16.44;67.23;102279.56;5198361;28;19991;-42
2022/08/30 01:38:12;;;;;;;17.30;7.50;;;;;;;16.48;67.04;102297.78;5188844;28;20044;-38
2022/08/30 01:40:47;;;;;;;9.68;7.45;;;;;;;16.45;67.34;102297.25;5201061;28;20055;-42
2022/08/30 01:43:20;;;;;;;16.50;8.48;;;;;;;16.40;67.52;102288.84;5195584;28;20467;-40
2022/08/30 01:45:52;;;;;;;;;;;;;;;16.40;67.83;102292.34;5191027;28;20052;-44
2022/08/30 01:52:14;;;;;;;11.40;7.53;;;;;;;16.34;68.82;102292.97;5195114;28;20130;-39
2022/08/30 01:54:48;;;;;;;11.80;8.13;;;;;;;16.35;69.05;102295.50;5202279;28;20054;-42
2022/08/30 01:57:25;;;;;;;10.32;7.60;;;;;;;16.37;68.68;102290.00;5199471;28;20049;-42
2022/08/30 01:59:58;;;;;;;16.98;7.68;;;;;;;16.35;68.92;102283.97;5200164;28;20043;-41
2022/08/30 02:02:30;;;;;;;11.10;7.85;;;;;;;16.41;68.76;102293.19;5203840;28;20430;-42
2022/08/30 02:05:05;;;;;;;11.23;7.07;;;;;;;16.40;68.54;102289.69;5200246;28;20040;-44
2022/08/30 02:07:37;;;;;;;12.95;7.93;;;;;;;16.40;68.33;102297.69;5196648;28;20419;-39
2022/08/30 02:10:11;;;;;;;11.63;8.25;;;;;;;16.39;68.35;102301.34;5200607;28;20404;-40
2022/08/30 02:12:46;;;;;;;13.02;9.18;;;;;;;16.40;68.78;102300.34;5198915;28;20563;-40
2022/08/30 02:15:19;;;;;;;11.50;8.63;;;;;;;16.31;68.83;102282.59;5205533;28;20037;-42
2022/08/30 02:17:51;;;;;;;17.38;8.00;;;;;;;16.36;68.81;102285.66;5198827;28;20072;-44
2022/08/30 02:20:24;;;;;;;16.80;10.13;;;;;;;16.41;68.97;102287.84;5198061;28;20968;-40
2022/08/30 02:22:56;;;;;;;9.23;7.88;;;;;;;16.36;68.69;102293.66;5203311;28;21745;-40
2022/08/30 02:25:29;;;;;;;17.67;9.02;;;;;;;16.36;68.87;102293.66;5202728;28;20052;-36
2022/08/30 02:28:03;;;;;;;18.92;9.02;;;;;;;16.34;68.86;102279.63;5203516;28;20561;-39
2022/08/30 02:30:36;;;;;;;19.45;9.95;;;;;;;16.37;68.89;102290.00;5201915;28;20052;-45
2022/08/30 02:33:08;;;;;;;16.05;8.77;;;;;;;16.34;69.42;102292.97;5199416;28;20460;-40
2022/08/30 02:35:41;;;;;;;12.77;8.05;;;;;;;16.31;69.35;102288.78;5204611;28;20140;-42
2022/08/30 02:38:14;;;;;;;9.98;7.80;;;;;;;16.27;69.30;102283.91;5200765;28;20137;-41
2022/08/30 02:40:46;;;;;;;8.65;7.57;;;;;;;16.19;69.34;102271.31;5198620;28;20048;-42
2022/08/30 02:43:21;;;;;;;18.02;7.82;;;;;;;16.24;69.43;102278.88;5202563;28;20051;-44
2022/08/30 02:45:53;;;;;;;10.00;7.88;;;;;;;16.23;69.08;102277.19;5204017;28;20492;-46
2022/08/30 02:48:26;;;;;;;10.68;7.22;;;;;;;16.17;69.31;102272.50;5195919;28;24038;-42
2022/08/30 02:51:06;;;;;;;11.82;8.55;;;;;;;16.18;69.41;102275.00;5197594;28;20431;-38
2022/08/30 02:53:39;;;;;;;12.27;9.35;;;;;;;16.12;69.69;102276.44;5196282;28;20080;-38
2022/08/30 02:56:14;;;;;;;11.07;8.02;;;;;;;16.13;69.49;102278.13;5201465;28;20442;-43
2022/08/30 02:58:48;;;;;;;16.33;9.32;;;;;;;16.11;69.80;102269.44;5202310;28;20049;-41
2022/08/30 03:01:20;;;;;;;13.75;8.25;;;;;;;16.15;69.68;102269.97;5188449;28;20045;-42
2022/08/30 03:03:53;;;;;;;13.82;9.02;;;;;;;16.09;70.10;102266.06;5189488;28;20098;-38
2022/08/30 03:06:25;;;;;;;13.93;9.70;;;;;;;16.10;70.34;102270.44;5190269;28;20496;-45
2022/08/30 03:08:58;;;;;;;15.23;7.75;;;;;;;16.14;70.09;102263.78;5193022;28;20409;-39
2022/08/30 03:11:30;;;;;;;12.63;9.07;;;;;;;16.13;70.17;102261.28;5193945;28;20643;-42
2022/08/30 03:14:04;;;;;;;17.38;8.70;;;;;;;16.15;70.17;102264.63;5192332;28;20094;-40
2022/08/30 03:16:38;;;;;;;12.98;8.25;;;;;;;16.09;70.15;102271.41;5186544;28;20570;-37
2022/08/30 03:20:14;;;;;;;9.27;7.30;;;;;;;16.09;70.19;102268.72;5202822;28;20048;-38
2022/08/30 03:22:46;;;;;;;13.13;7.10;;;;;;;16.02;69.94;102266.84;5188923;28;20049;-44
2022/08/30 03:25:20;;;;;;;12.05;7.50;;;;;;;15.95;70.19;102269.28;5199843;28;20451;-47
2022/08/30 03:27:53;;;;;;;13.18;7.05;;;;;;;15.87;70.08;102266.50;5177373;28;20338;-43
2022/08/30 03:30:26;;;;;;;9.43;6.90;;;;;;;15.89;70.09;102272.53;5177945;28;20553;-40
2022/08/30 03:32:59;;;;;;;11.82;7.65;;;;;;;15.82;69.99;102268.78;5193204;28;20139;-39
2022/08/30 03:35:32;;;;;;;15.40;6.88;;;;;;;15.85;69.83;102271.97;5194702;28;20113;-39
2022/08/30 03:38:04;;;;;;;15.18;8.45;;;;;;;15.81;69.82;102267.09;5186132;28;20122;-42
2022/08/30 03:40:37;;;;;;;16.48;8.93;;;;;;;15.83;69.79;102271.31;5191823;28;20037;-34
2022/08/30 03:43:09;;;;;;;10.30;7.70;;;;;;;15.83;69.52;102265.97;5192308;28;20511;-40
2022/08/30 03:45:44;;;;;;;17.85;10.05;;;;;;;15.84;69.57;102266.81;5177068;28;20052;-43
2022/08/30 03:48:17;;;;;;;16.48;9.57;;;;;;;15.80;69.55;102265.44;5175564;28;20449;-48
2022/08/30 03:50:49;;;;;;;15.48;9.35;;;;;;;15.80;69.55;102268.94;5193942;28;20052;-41
2022/08/30 03:53:22;;;;;;;16.10;10.75;;;;;;;15.75;70.05;102262.38;5196441;28;20048;-39
2022/08/30 03:55:55;;;;;;;20.27;10.60;;;;;;;15.76;70.25;102270.19;5198506;28;20049;-45
2022/08/30 03:58:27;;;;;;;15.07;11.02;;;;;;;15.79;70.96;102264.56;5192311;28;20056;-39
2022/08/30 04:01:01;;;;;;;13.88;10.63;;;;;;;15.76;70.98;102264.03;5197236;28;20523;-45
2022/08/30 04:03:34;;;;;;;16.48;12.10;;;;;;;15.79;71.48;102274.38;5199760;28;20047;-39
2022/08/30 04:06:07;;;;;;;12.85;10.75;;;;;;;15.78;71.68;102270.91;5198342;28;20431;-40
2022/08/30 04:08:39;;;;;;;;;;;;;;;15.80;71.72;102270.75;5195490;28;20044;-40
2022/08/30 04:11:13;;;;;;;17.02;11.10;;;;;;;15.78;72.02;102267.41;5200988;28;19931;-39
2022/08/30 04:13:48;;;;;;;13.65;10.65;;;;;;;15.75;72.28;102265.03;5201357;28;20457;-43
2022/08/30 04:16:22;;;;;;;18.45;11.98;;;;;;;15.75;72.15;102257.88;5197904;28;20480;-42
2022/08/30 04:18:54;;;;;;;15.75;11.52;;;;;;;15.77;72.05;102260.41;5198480;28;20044;-44
2022/08/30 04:21:27;;;;;;;16.30;12.55;;;;;;;15.85;72.07;102273.78;5201474;28;20083;-41
2022/08/30 04:24:00;;;;;;;16.95;10.15;;;;;;;15.82;71.89;102274.94;5213675;28;20040;-39
2022/08/30 04:26:34;;;;;;;15.60;11.52;;;;;;;15.79;72.06;102269.91;5204009;28;20098;-39
2022/08/30 04:29:06;;;;;;;15.55;12.05;;;;;;;15.80;71.83;102262.78;5198726;28;20416;-41
2022/08/30 04:31:40;;;;;;;17.30;11.90;;;;;;;15.83;71.98;102279.28;5199215;28;20388;-40
2022/08/30 04:34:14;;;;;;;16.40;12.88;;;;;;;15.80;72.22;102276.91;5201867;28;20110;-39
2022/08/30 04:36:47;;;;;;;25.60;12.75;;;;;;;15.79;72.23;102282.38;5219862;28;20373;-40
2022/08/30 04:39:20;;;;;;;13.77;11.32;;;;;;;15.79;72.46;102285.88;5201419;28;20111;-43
2022/08/30 04:41:54;;;;;;;16.85;10.70;;;;;;;15.79;72.51;102285.03;5211746;28;20502;-41
2022/08/30 04:44:27;;;;;;;14.27;11.18;;;;;;;15.74;72.28;102277.50;5205328;28;20461;-41
2022/08/30 04:47:01;;;;;;;15.30;10.02;;;;;;;15.80;72.18;102295.56;5214394;28;20439;-39
2022/08/30 04:49:33;;;;;;;13.65;10.50;;;;;;;15.80;72.07;102292.06;5208177;28;20048;-40
2022/08/30 04:52:07;;;;;;;14.85;11.60;;;;;;;15.78;72.08;102294.03;5215104;28;20349;-39
2022/08/30 04:54:40;;;;;;;17.15;11.70;;;;;;;15.74;72.06;102288.16;5196852;28;20492;-40
2022/08/30 04:57:12;;;;;;;15.15;11.57;;;;;;;15.79;72.06;102287.72;5202618;28;20066;-47
2022/08/30 04:59:45;;;;;;;15.50;10.15;;;;;;;15.81;71.95;102289.25;5203392;28;20075;-41
2022/08/30 05:02:19;;;;;;;14.55;10.85;;;;;;;15.81;72.00;102288.41;5210653;28;20063;-43
2022/08/30 05:07:39;;;;;;;15.50;10.40;;;;;;;15.83;71.64;102286.44;5165862;28;20397;-41
2022/08/30 05:10:11;;;;;;;14.40;10.52;;;;;;;15.92;71.60;102296.22;5217070;28;20052;-46
2022/08/30 05:12:44;;;;;;;12.27;10.38;;;;;;;16.01;71.58;102300.66;5208229;27;20078;-39
2022/08/30 05:15:17;;;;;;;17.45;10.05;;;;;;;16.02;71.64;102291.66;5203426;28;20420;-41
2022/08/30 05:17:51;;;;;;;12.73;9.52;;;;;;;16.13;71.25;102301.25;5189050;28;20442;-42
2022/08/30 05:20:23;;;;;;;13.75;8.88;;;;;;;16.22;71.10;102303.00;5205992;28;20404;-37
2022/08/30 05:22:56;;;;;;;11.55;8.43;;;;;;;16.22;70.90;102294.19;5219834;28;20072;-40
2022/08/30 05:25:32;;;;;;;15.32;10.23;;;;;;;16.32;70.72;102311.78;5205935;28;20137;-42
2022/08/30 05:28:05;;;;;;;14.15;9.82;;;;;;;16.37;70.82;102306.00;5203676;28;20515;-39
2022/08/30 05:30:38;;;;;;;;;;;;;;;16.43;70.63;102321.38;5198653;28;20480;-38
2022/08/30 05:33:11;;;;;;;11.98;8.63;;;;;;;16.44;70.50;102311.56;5203788;28;20314;-40
2022/08/30 05:35:44;;;;;;;11.35;8.65;;;;;;;16.55;70.54;102314.84;5205127;28;20389;-40
2022/08/30 05:38:17;;;;;;;13.30;8.90;;;;;;;16.62;70.45;102315.06;5202314;28;20044;-38
2022/08/30 05:40:50;;;;;;;11.80;8.95;;;;;;;16.68;70.29;102313.59;5205287;28;20095;-43
2022/08/30 05:43:22;;;;;;;12.75;7.88;;;;;;;16.71;70.03;102313.31;5203384;28;20040;-47
2022/08/30 05:46:00;;;;;;;11.52;7.88;;;;;;;16.82;69.91;102316.59;5203009;28;20112;-39
2022/08/30 05:48:35;;;;;;;12.73;8.10;;;;;;;16.92;69.83;102316.50;5202492;28;20099;-39
2022/08/30 05:51:10;;;;;;;9.07;6.95;;;;;;;16.98;69.68;102318.56;5203060;28;20114;-44
2022/08/30 05:53:43;;;;;;;12.85;7.45;;;;;;;17.05;69.69;102322.25;5204989;28;20439;-41
2022/08/30 05:56:19;;;;;;;12.13;7.60;;;;;;;17.11;69.63;102314.63;5203940;28;20455;-40
2022/08/30 05:58:52;;;;;;;9.80;6.53;;;;;;;17.07;69.50;102307.94;5206550;28;20432;-41
2022/08/30 06:01:27;;;;;;;8.98;6.88;;;;;;;17.30;69.20;102322.41;5209247;28;20439;-40
2022/08/30 06:04:03;;;;;;;13.27;8.15;;;;;;;17.40;69.04;102325.81;5205709;28;20056;-42
2022/08/30 06:06:38;;;;;;;7.13;6.30;;;;;;;17.51;68.86;102328.22;5204261;28;20118;-41
2022/08/30 06:09:12;;;;;;;9.85;6.30;;;;;;;17.64;68.62;102326.94;5202493;28;20040;-42
2022/08/30 06:11:46;;;;;;;9.63;6.28;;;;;;;17.75;68.36;102334.69;5204746;28;20243;-35
2022/08/30 06:14:19;;;;;;;11.07;6.00;;;;;;;18.04;68.15;102320.13;5207142;28;20426;-41
2022/08/30 06:16:52;;;;;;;5.00;4.07;;;;;;;19.41;66.84;102317.63;5204023;28;20075;-39
2022/08/30 06:19:26;;;;;;;7.28;3.53;;;;;;;21.36;64.68;102321.88;5205596;28;20396;-47
2022/08/30 06:21:59;;;;;;;11.73;4.18;;;;;;;23.07;61.48;102323.13;5202005;28;20126;-42
2022/08/30 06:24:32;;;;;;;6.40;3.42;;;;;;;24.37;58.88;102315.00;5209209;28;20124;-39
2022/08/30 06:27:05;;;;;;;6.60;2.95;;;;;;;25.80;57.01;102321.66;5203093;28;20404;-41
2022/08/30 06:29:37;;;;;;;7.45;2.75;;;;;;;27.03;53.06;102318.53;5202514;28;20040;-39
2022/08/30 06:32:10;;;;;;;5.72;2.78;;;;;;;27.98;51.69;102321.66;5204321;28;20550;-42
2022/08/30 06:34:44;;;;;;;7.70;3.65;;;;;;;28.66;48.83;102303.28;5205508;28;20052;-43
2022/08/30 06:37:16;;;;;;;11.10;2.90;;;;;;;29.02;47.37;102317.72;5200453;28;20098;-44
2022/08/30 06:39:49;;;;;;;3.72;1.90;;;;;;;29.77;45.88;102323.16;5207104;28;20561;-40
2022/08/30 06:42:22;;;;;;;11.25;3.60;;;;;;;30.62;44.62;102328.75;5205280;28;20385;-42
2022/08/30 06:44:56;;;;;;;4.25;2.33;;;;;;;30.76;41.08;102320.00;5203880;28;20044;-45
2022/08/30 06:47:29;;;;;;;5.80;1.70;;;;;;;31.07;39.04;102325.94;5202746;28;20515;-41
2022/08/30 06:50:03;;;;;;;8.05;1.80;;;;;;;31.56;39.07;102320.59;5202968;27;20047;-40
2022/08/30 06:52:36;;;;;;;3.40;1.88;;;;;;;32.41;38.48;102333.75;5205313;28;20052;-44
2022/08/30 06:55:10;;;;;;;4.95;2.10;;;;;;;32.81;37.19;102330.53;5209345;28;20415;-41
2022/08/30 06:57:43;;;;;;;5.18;1.90;;;;;;;33.59;35.50;102327.13;5208103;28;20080;-39
2022/08/30 07:00:17;;;;;;;5.47;1.67;;;;;;;34.11;34.27;102337.97;5205375;28;20738;-43
2022/08/30 07:02:50;;;;;;;5.60;1.73;;;;;;;34.03;32.53;102337.66;5202144;28;20570;-44
2022/08/30 07:05:24;;;;;;;4.07;1.60;;;;;;;34.04;33.14;102328.34;5203709;28;20051;-47
2022/08/30 07:07:56;;;;;;;7.28;2.38;;;;;;;33.94;31.84;102329.13;5206630;28;20178;-43
2022/08/30 07:10:29;;;;;;;;;;;;;;;33.80;32.06;102337.06;5201607;28;20624;-47
2022/08/30 07:13:01;;;;;;;2.22;1.35;;;;;;;33.98;31.81;102333.00;5203690;28;20005;-46
2022/08/30 07:15:34;;;;;;;4.03;1.50;;;;;;;34.08;30.42;102332.22;5212698;28;20052;-46
2022/08/30 07:20:59;;;;;;;4.18;1.67;;;;;;;33.93;30.16;102332.97;5203219;28;20507;-43
2022/08/30 07:23:32;;;;;;;5.78;1.65;;;;;;;33.74;29.34;102324.44;5203381;28;20424;-48
2022/08/30 07:26:05;;;;;;;;;;;;;;;33.47;30.44;102333.63;5204691;28;20454;-43
2022/08/30 07:28:39;;;;;;;2.78;1.40;;;;;;;33.69;29.69;102335.38;5210345;28;19924;-41
2022/08/30 07:31:14;;;;;;;1.92;1.20;;;;;;;33.43;28.81;102328.97;5217823;28;20135;-44
2022/08/30 07:33:47;;;;;;;4.05;1.38;;;;;;;32.86;28.92;102325.09;5203065;28;20377;-43
2022/08/30 07:36:22;;;;;;;3.50;1.27;;;;;;;32.46;29.24;102342.88;5213555;28;20135;-41
2022/08/30 07:38:54;;;;;;;2.20;1.00;;;;;;;32.31;30.08;102337.22;5205451;28;20553;-44
2022/08/30 07:41:30;;;;;;;6.75;1.27;;;;;;;32.44;29.61;102345.03;5202328;28;20044;-44
2022/08/30 07:44:04;;;;;;;3.00;1.25;;;;;;;32.35;29.80;102346.56;5203523;28;20072;-43
2022/08/30 07:46:38;;;;;;;4.38;1.17;;;;;;;32.46;29.20;102336.53;5204766;28;20183;-41
2022/08/30 07:49:11;;;;;;;3.75;1.25;;;;;;;32.56;29.22;102334.72;5202874;28;20040;-40
2022/08/30 07:51:46;;;;;;;5.88;1.40;;;;;;;32.70;29.00;102345.22;5206997;28;20135;-43
2022/08/30 07:54:18;;;;;;;2.88;1.08;;;;;;;32.51;29.12;102351.09;5204378;28;20514;-43
2022/08/30 07:56:54;;;;;;;2.60;1.10;;;;;;;33.12;28.53;102338.97;5204658;28;20072;-41
2022/08/30 07:59:27;;;;;;;4.82;1.08;;;;;;;32.90;27.89;102350.84;5201164;28;20063;-42
2022/08/30 08:02:01;;;;;;;1.85;0.95;;;;;;;31.93;28.48;102339.03;5197434;28;20484;-43
2022/08/30 08:04:34;;;;;;;5.80;1.40;;;;;;;31.22;29.42;102334.34;5209672;28;20041;-40
2022/08/30 08:07:08;;;;;;;2.25;1.20;;;;;;;31.37;29.61;102341.09;5203509;28;20453;-41
2022/08/30 08:09:41;;;;;;;3.13;1.05;;;;;;;31.30;30.27;102334.97;5202623;28;20135;-42
2022/08/30 08:12:13;;;;;;;2.33;1.20;;;;;;;31.46;30.04;102345.84;5204669;28;20063;-42
2022/08/30 08:14:45;;;;;;;;;;;;;;;31.26;29.52;102342.00;5204450;28;20189;-43
2022/08/30 08:17:18;;;;;;;7.00;1.58;;;;;;;31.06;29.46;102345.28;5204517;28;19920;-43
2022/08/30 08:19:50;;;;;;;;;;;;;;;30.94;29.90;102342.63;5201798;28;20144;-45
2022/08/30 08:22:24;;;;;;;7.63;1.38;;;;;;;30.85;30.01;102333.25;5195237;28;20407;-45
2022/08/30 08:24:57;;;;;;;5.28;1.10;;;;;;;31.30;29.77;102345.88;5202594;28;20113;-46
2022/08/30 08:27:29;;;;;;;;;;;;;;;31.61;29.33;102342.47;5205730;28;20408;-45
2022/08/30 08:30:02;;;;;;;2.92;1.13;;;;;;;31.59;29.12;102339.19;5201867;28;19921;-43
2022/08/30 08:32:34;;;;;;;1.40;1.00;;;;;;;31.56;29.32;102338.84;5204428;28;20131;-44
2022/08/30 08:35:10;;;;;;;2.80;1.25;;;;;;;31.23;29.41;102352.34;5204303;28;20055;-42
2022/08/30 08:37:44;;;;;;;4.05;1.35;;;;;;;30.41;29.86;102354.84;5204799;28;20484;-46
2022/08/30 08:40:19;;;;;;;2.42;1.23;;;;;;;29.87;30.58;102353.31;5200980;28;20129;-47
2022/08/30 08:43:05;;;;;;;1.85;1.00;;;;;;;29.71;30.96;102351.38;5204227;28;20499;-51
2022/08/30 08:45:51;;;;;;;1.17;0.85;;;;;;;29.85;30.84;102352.72;5197796;28;20110;-45
2022/08/30 08:48:32;;;;;;;4.40;1.00;;;;;;;29.64;31.12;102350.69;5195922;28;20044;-43
2022/08/30 08:54:06;;;;;;;3.15;1.13;;;;;;;28.29;32.29;102374.06;5200130;28;20052;-44
2022/08/30 08:56:39;;;;;;;2.78;1.23;;;;;;;27.80;33.41;102351.53;5201141;28;20129;-46
2022/08/30 08:59:14;;;;;;;1.83;1.02;;;;;;;27.50;34.13;102359.59;5205135;28;20526;-43
2022/08/30 09:01:49;;;;;;;2.75;0.93;;;;;;;27.34;34.20;102345.56;5207800;28;20206;-44
2022/08/30 09:04:30;;;;;;;2.42;1.15;;;;;;;27.43;34.56;102367.81;5203805;28;20118;-42
2022/08/30 09:07:08;;;;;;;8.20;1.60;;;;;;;26.97;34.28;102355.50;5206826;28;20396;-46
2022/08/30 09:09:44;;;;;;;3.88;1.48;;;;;;;26.57;34.55;102353.16;5203863;28;20053;-46
2022/08/30 09:12:16;;;;;;;3.10;1.25;;;;;;;26.22;35.02;102345.41;5208560;28;20044;-46
2022/08/30 09:14:53;;;;;;;3.92;1.05;;;;;;;26.03;35.72;102361.78;5208542;28;20056;-42
2022/08/30 09:17:26;;;;;;;4.30;1.40;;;;;;;25.95;35.94;102352.03;5209722;28;20408;-46
2022/08/30 09:20:00;;;;;;;;;;;;;;;25.85;36.35;102359.78;5208314;28;20469;-43
2022/08/30 09:22:36;;;;;;;3.25;1.30;;;;;;;25.05;38.07;102362.63;5208140;28;19979;-44
2022/08/30 09:25:22;;;;;;;5.15;2.05;;;;;;;24.16;39.80;102361.06;5203902;28;20445;-44
2022/08/30 09:28:09;;;;;;;4.35;1.80;;;;;;;23.67;40.82;102364.75;5208260;28;20111;-42
2022/08/30 09:31:01;;;;;;;6.70;1.30;;;;;;;23.28;41.73;102371.56;5205091;28;20647;-41
2022/08/30 09:33:35;;;;;;;1.30;1.20;;;;;;;23.37;41.38;102367.69;5213260;28;20466;-46
2022/08/30 09:36:21;;;;;;;4.65;1.90;;;;;;;23.57;41.20;102350.78;5203516;28;20075;-47
2022/08/30 09:39:01;;;;;;;11.70;1.63;;;;;;;23.60;40.87;102353.94;5203829;28;20048;-46
2022/08/30 09:41:41;;;;;;;7.55;1.65;;;;;;;23.59;40.39;102365.75;5203833;28;20072;-52
2022/08/30 09:44:17;;;;;;;6.85;1.60;;;;;;;23.50;40.85;102366.09;5201160;28;20439;-44
2022/08/30 09:46:53;;;;;;;6.35;1.58;;;;;;;23.40;41.35;102361.91;5204196;28;20409;-44
2022/08/30 09:49:35;;;;;;;5.60;1.42;;;;;;;23.20;41.57;102358.25;5203677;28;20059;-41
2022/08/30 09:52:18;;;;;;;5.43;1.70;;;;;;;22.90;42.60;102361.09;5202268;28;20056;-37
2022/08/30 09:55:05;;;;;;;2.95;1.42;;;;;;;23.06;42.45;102359.19;5204458;28;20493;-43
2022/08/30 09:57:51;;;;;;;1.85;1.55;;;;;;;22.91;42.13;102362.75;5203366;28;20480;-35
2022/08/30 10:00:28;;;;;;;3.40;1.48;;;;;;;22.68;42.59;102365.69;5199678;28;20044;-42
2022/08/30 10:03:18;;;;;;;3.72;1.42;;;;;;;22.73;42.86;102354.31;5199890;28;20078;-43
2022/08/30 10:05:58;;;;;;;4.50;1.88;;;;;;;22.78;42.89;102351.88;5199762;28;20059;-48
2022/08/30 10:08:51;;;;;;;12.10;2.40;;;;;;;22.76;43.31;102359.31;5193565;28;20052;-45
2022/08/30 10:11:32;;;;;;;6.15;1.77;;;;;;;22.81;43.28;102340.72;5200793;28;20048;-44
2022/08/30 10:14:50;;;;;;;3.50;1.70;;;;;;;22.96;42.73;102359.53;5203110;28;20056;-45
2022/08/30 10:17:40;;;;;;;5.43;1.65;;;;;;;23.23;42.90;102352.47;5204437;28;20516;-46
2022/08/30 10:20:21;;;;;;;4.35;1.58;;;;;;;23.39;41.74;102349.47;5198049;28;20388;-47
2022/08/30 10:23:05;;;;;;;7.25;1.65;;;;;;;23.30;41.44;102350.66;5197383;28;20095;-43
2022/08/30 10:25:43;;;;;;;10.15;1.50;;;;;;;23.35;41.26;102374.31;5203818;28;20041;-44
2022/08/30 10:28:22;;;;;;;7.78;2.15;;;;;;;23.07;41.68;102341.97;5200942;28;20128;-46
2022/08/30 10:31:01;;;;;;;2.33;1.40;;;;;;;23.25;41.91;102363.88;5204434;28;20482;-48
2022/08/30 10:33:38;;;;;;;3.67;1.92;;;;;;;23.11;42.31;102351.34;5199511;28;20372;-44
2022/08/30 10:36:14;;;;;;;7.20;2.00;;;;;;;22.97;42.30;102345.84;5198655;28;20467;-44
2022/08/30 10:38:50;;;;;;;5.53;2.28;;;;;;;23.11;42.45;102362.13;5197294;27;20165;-43
2022/08/30 10:41:34;;;;;;;3.08;2.35;;;;;;;23.10;42.81;102365.84;5199717;28;20098;-42
2022/08/30 10:44:20;;;;;;;5.18;1.52;;;;;;;23.32;42.40;102359.38;5197011;28;20103;-44
2022/08/30 10:47:06;;;;;;;9.40;2.03;;;;;;;23.31;42.74;102359.56;5202429;28;20484;-45
2022/08/30 10:49:42;;;;;;;6.38;2.58;;;;;;;23.50;42.84;102360.72;5199535;28;20397;-44
2022/08/30 10:52:29;;;;;;;5.97;2.22;;;;;;;23.43;42.87;102355.28;5199479;28;20470;-46
2022/08/30 10:55:08;;;;;;;5.43;1.85;;;;;;;23.33;43.01;102360.22;5201115;28;20044;-45
2022/08/30 10:57:41;;;;;;;4.10;1.70;;;;;;;23.25;42.76;102363.88;5197893;28;20033;-45
2022/08/30 11:00:15;;;;;;;;;;;;;;;23.31;42.70;102368.47;5199840;28;20063;-43
2022/08/30 11:03:31;;;;;;;3.30;1.90;;;;;;;23.40;42.39;102358.38;5202679;28;19932;-44
2022/08/30 11:06:15;;;;;;;4.97;1.75;;;;;;;23.28;42.04;102374.28;5197340;28;20048;-42
2022/08/30 11:09:25;;;;;;;4.57;1.80;;;;;;;23.18;42.00;102360.31;5203874;28;20054;-43
2022/08/30 11:12:36;;;;;;;2.55;1.55;;;;;;;23.01;42.59;102355.22;5193994;28;20110;-43
2022/08/30 11:15:19;;;;;;;5.05;1.25;;;;;;;23.19;42.28;102359.28;5105714;28;20054;-39
2022/08/30 11:17:57;;;;;;;;;;;;;;;23.17;41.74;102353.28;5194698;28;20127;-42
2022/08/30 11:20:41;;;;;;;3.85;1.83;;;;;;;23.21;42.15;102355.34;5205180;28;19921;-42
2022/08/30 11:23:28;;;;;;;3.97;2.28;;;;;;;23.16;42.38;102352.41;5200176;28;20122;-41
2022/08/30 11:26:04;;;;;;;8.13;1.95;;;;;;;23.10;42.78;102350.50;5208124;28;20491;-44
2022/08/30 11:29:04;;;;;;;12.25;1.75;;;;;;;23.21;42.88;102359.91;5200095;28;20044;-47
2022/08/30 11:31:42;;;;;;;4.30;1.63;;;;;;;23.24;42.63;102363.06;5183735;28;20442;-44
2022/08/30 11:34:54;;;;;;;5.07;2.03;;;;;;;23.39;42.22;102362.94;5193998;27;20424;-46
2022/08/30 11:37:41;;;;;;;2.58;1.70;;;;;;;23.35;42.08;102352.75;5196507;28;20243;-39
2022/08/30 11:40:48;;;;;;;3.28;2.05;;;;;;;23.28;42.29;102358.09;5195342;28;20060;-46
2022/08/30 11:43:54;;;;;;;3.45;2.03;;;;;;;23.23;42.22;102355.19;5194236;28;20086;-48
2022/08/30 11:46:45;;;;;;;7.28;2.78;;;;;;;23.25;42.51;102356.63;5181379;28;20040;-43
2022/08/30 11:49:52;;;;;;;5.30;1.73;;;;;;;23.33;42.11;102355.66;5198420;28;20369;-47
2022/08/30 11:52:59;;;;;;;4.28;2.45;;;;;;;23.34;42.10;102354.59;5189749;28;20044;-44
2022/08/30 11:56:03;;;;;;;7.43;2.33;;;;;;;23.51;42.33;102340.84;5113129;28;20407;-47
2022/08/30 11:58:47;;;;;;;3.80;1.70;;;;;;;23.45;41.31;102354.06;5196619;28;20442;-50
2022/08/30 12:01:33;;;;;;;3.97;2.10;;;;;;;23.33;41.16;102350.25;5200264;28;20040;-45
2022/08/30 12:04:11;;;;;;;16.48;2.53;;;;;;;23.18;41.68;102338.75;5194659;28;20412;-45
2022/08/30 12:06:55;;;;;;;11.35;2.38;;;;;;;23.16;41.37;102354.28;5194202;28;20492;-48
2022/08/30 12:10:04;;;;;;;2.38;1.20;;;;;;;23.10;41.89;102350.50;5196893;28;22708;-37
2022/08/30 12:12:55;;;;;;;3.75;2.20;;;;;;;23.04;41.23;102345.06;5197435;28;20048;-42
2022/08/30 12:15:58;;;;;;;6.05;1.70;;;;;;;23.24;41.23;102335.25;5199792;28;22117;-45
2022/08/30 12:18:49;;;;;;;8.38;1.60;;;;;;;23.56;40.85;102349.97;5196340;28;20429;-44
2022/08/30 12:21:29;;;;;;;3.15;2.00;;;;;;;23.71;41.26;102341.78;5197326;28;20433;-44
2022/08/30 12:24:07;;;;;;;5.13;2.08;;;;;;;23.83;40.96;102337.47;5198087;28;20443;-45